Time;durP1;ratioP1;P1;durP2;ratioP2;P2;SDS_P1;SDS_P2;PMS_P1;PMS_P2;Temp;Humidity;BMP_temperature;BMP_pressure;BME280_temperature;BME280_humidity;BME280_pressure;Samples;Min_cycle;Max_cycle;Signal;HPM_P1;HPM_P2
2022/06/04 00:00:28;;;;;;;5.63;3.15;;;;;;;25.73;48.97;99072.88;4993052;28;20500;-74
2022/06/04 00:02:54;;;;;;;6.90;3.17;;;;;;;25.71;49.18;99077.59;4994046;28;20038;-75
2022/06/04 00:05:24;;;;;;;6.13;3.30;;;;;;;25.66;49.32;99074.72;4977064;28;20497;-75
2022/06/04 00:07:52;;;;;;;8.75;3.40;;;;;;;25.70;49.14;99075.16;4994334;28;20031;-74
2022/06/04 00:15:54;;;;;;;13.18;3.22;;;;;;;25.67;48.85;99065.69;4993992;28;20477;-74
2022/06/04 00:18:20;;;;;;;6.88;3.10;;;;;;;25.73;48.63;99069.34;4992908;28;20109;-74
2022/06/04 00:20:46;;;;;;;10.05;3.20;;;;;;;25.67;48.71;99063.00;4992691;28;20037;-74
2022/06/04 00:23:12;;;;;;;7.38;2.85;;;;;;;25.64;49.02;99058.06;4992733;28;20031;-74
2022/06/04 00:25:39;;;;;;;10.05;3.50;;;;;;;25.63;49.36;99057.25;4993707;28;20502;-75
2022/06/04 00:28:06;;;;;;;7.93;3.22;;;;;;;25.59;49.14;99047.19;4976460;28;20054;-75
2022/06/04 00:30:32;;;;;;;8.77;3.25;;;;;;;25.56;48.96;99051.09;4992483;28;20576;-74
2022/06/04 00:32:57;;;;;;;10.27;3.25;;;;;;;25.54;49.23;99049.63;4993148;28;20066;-74
2022/06/04 00:35:23;;;;;;;7.28;3.30;;;;;;;25.52;49.22;99041.81;4993633;28;20033;-74
2022/06/04 00:37:49;;;;;;;7.78;3.13;;;;;;;25.50;49.32;99032.38;4993613;28;20058;-74
2022/06/04 00:40:46;;;;;;;6.10;3.63;;;;;;;25.49;49.48;99033.41;4974962;28;20030;-76
2022/06/04 00:43:11;;;;;;;11.27;3.15;;;;;;;25.46;49.34;99032.81;4993224;28;20034;-76
2022/06/04 00:45:37;;;;;;;14.07;3.65;;;;;;;25.45;49.21;99033.00;4993338;28;20401;-74
2022/06/04 00:48:09;;;;;;;5.93;2.90;;;;;;;25.44;49.38;99029.53;4993410;28;20045;-74
2022/06/04 00:50:37;;;;;;;10.25;3.20;;;;;;;25.42;49.43;99023.53;4992169;28;20033;-75
2022/06/04 00:53:05;;;;;;;11.15;3.30;;;;;;;25.41;49.37;99018.41;4976067;28;20037;-75
2022/06/04 00:55:52;;;;;;;7.85;3.40;;;;;;;25.32;49.86;99006.28;4976184;28;20172;-74
2022/06/04 00:58:35;;;;;;;10.32;3.47;;;;;;;25.33;49.42;99006.06;4993275;28;20022;-74
2022/06/04 01:01:07;;;;;;;6.97;3.13;;;;;;;25.35;49.32;99005.88;4975732;28;20109;-74
2022/06/04 01:03:40;;;;;;;7.20;3.38;;;;;;;25.33;49.10;98999.91;4991758;28;20030;-74
2022/06/04 01:06:18;;;;;;;6.40;3.33;;;;;;;25.34;49.24;98998.91;4960538;28;20026;-74
2022/06/04 01:09:06;;;;;;;10.13;3.47;;;;;;;25.31;49.30;99005.47;4993516;28;20030;-74
2022/06/04 01:12:09;;;;;;;4.70;3.15;;;;;;;25.26;49.34;99000.72;4993056;28;20041;-74
2022/06/04 01:14:53;;;;;;;7.90;3.30;;;;;;;25.22;49.47;99004.00;4992919;28;20042;-74
2022/06/04 01:17:18;;;;;;;8.45;3.30;;;;;;;25.22;49.55;98998.66;4993168;28;20528;-74
2022/06/04 01:20:21;;;;;;;9.35;2.90;;;;;;;25.22;49.43;99004.00;4993240;28;20058;-75
2022/06/04 01:23:12;;;;;;;9.40;3.42;;;;;;;25.21;49.38;99016.53;4989286;28;20042;-74
2022/06/04 01:26:07;;;;;;;11.07;3.30;;;;;;;25.18;49.60;99006.25;4992884;28;20062;-74
2022/06/04 01:28:33;;;;;;;6.55;3.20;;;;;;;25.19;49.62;99012.41;4978881;28;20054;-74
2022/06/04 01:31:03;;;;;;;6.18;3.20;;;;;;;25.20;49.55;99012.22;4991491;28;20030;-74
2022/06/04 01:33:35;;;;;;;8.13;3.70;;;;;;;25.20;49.71;99014.06;4991437;28;20536;-74
2022/06/04 01:36:24;;;;;;;9.43;3.75;;;;;;;25.17;49.74;99017.97;4975456;28;20486;-74
2022/06/04 01:38:57;;;;;;;10.55;3.17;;;;;;;25.15;49.55;99013.88;4989729;28;20474;-74
2022/06/04 01:41:39;;;;;;;8.15;3.20;;;;;;;25.09;49.91;99020.84;4991366;28;20062;-74
2022/06/04 01:44:10;;;;;;;9.35;3.08;;;;;;;25.07;49.81;99031.72;4991858;28;20022;-74
2022/06/04 01:46:45;;;;;;;8.20;3.25;;;;;;;25.02;49.88;99022.69;4978346;28;20026;-74
2022/06/04 01:49:25;;;;;;;5.38;3.05;;;;;;;25.05;49.85;99031.13;4979540;28;20038;-74
2022/06/04 01:51:54;;;;;;;7.45;3.25;;;;;;;25.06;49.92;99026.59;4996509;28;20052;-74
2022/06/04 01:54:24;;;;;;;6.53;3.05;;;;;;;25.05;49.97;99023.09;4978858;28;20050;-74
2022/06/04 01:56:57;;;;;;;6.28;3.67;;;;;;;25.01;49.88;99021.84;4979829;28;20093;-74
2022/06/04 01:59:28;;;;;;;12.77;2.85;;;;;;;25.00;50.22;99022.91;4995578;28;20153;-74
2022/06/04 02:01:54;;;;;;;5.38;3.22;;;;;;;24.98;50.23;99019.59;4995367;28;20040;-74
2022/06/04 02:04:25;;;;;;;8.82;3.42;;;;;;;24.95;50.22;99019.19;4995314;28;20030;-74
2022/06/04 02:09:39;;;;;;;6.70;3.10;;;;;;;24.85;50.32;99015.06;4995452;28;20145;-74
2022/06/04 02:12:05;;;;;;;7.07;3.10;;;;;;;24.86;50.40;99029.22;4994710;28;20421;-74
2022/06/04 02:14:30;;;;;;;9.55;3.40;;;;;;;24.83;50.54;99025.13;4978205;28;20064;-74
2022/06/04 02:17:05;;;;;;;7.53;3.25;;;;;;;24.74;50.61;99013.81;4995025;28;20061;-74
2022/06/04 02:19:31;;;;;;;8.45;3.47;;;;;;;24.78;50.57;99024.06;4978317;28;20416;-74
2022/06/04 02:21:56;;;;;;;6.53;3.25;;;;;;;24.77;50.67;99022.44;4995963;28;20030;-74
2022/06/04 02:24:22;;;;;;;7.25;3.35;;;;;;;24.78;50.45;99030.25;4995976;28;20118;-74
2022/06/04 02:26:47;;;;;;;10.70;3.55;;;;;;;24.79;50.52;99020.41;4994537;28;20521;-74
2022/06/04 02:29:13;;;;;;;7.55;3.30;;;;;;;24.77;50.61;99022.44;4994450;28;20050;-74
2022/06/04 02:31:57;;;;;;;7.03;3.33;;;;;;;24.77;50.48;99027.78;4994735;28;20456;-76
2022/06/04 02:34:33;;;;;;;7.50;3.67;;;;;;;24.75;50.63;99030.66;4994619;28;20619;-74
2022/06/04 02:37:04;;;;;;;7.97;3.60;;;;;;;24.70;50.90;99023.25;4994640;28;20080;-74
2022/06/04 02:39:44;;;;;;;10.70;3.70;;;;;;;24.69;50.86;99018.94;4994584;28;20565;-74
2022/06/04 02:42:24;;;;;;;10.32;3.35;;;;;;;24.72;50.66;99033.72;4994769;28;20030;-74
2022/06/04 02:44:52;;;;;;;8.57;3.67;;;;;;;24.76;50.75;99031.47;4995768;28;20398;-75
2022/06/04 02:47:19;;;;;;;7.88;3.08;;;;;;;24.78;50.57;99027.59;4994403;28;20026;-74
2022/06/04 02:49:47;;;;;;;8.00;3.20;;;;;;;24.79;50.61;99031.06;4994446;28;20038;-74
2022/06/04 02:52:14;;;;;;;15.85;3.58;;;;;;;24.80;50.57;99038.06;4995487;28;20084;-74
2022/06/04 02:54:47;;;;;;;7.00;3.08;;;;;;;24.79;50.78;99028.41;4978357;28;20027;-74
2022/06/04 02:57:13;;;;;;;7.75;3.50;;;;;;;24.85;50.68;99032.94;4977776;28;20382;-75
2022/06/04 02:59:38;;;;;;;8.65;3.03;;;;;;;24.96;50.05;99031.53;4977937;28;20057;-74
2022/06/04 03:02:04;;;;;;;10.60;3.70;;;;;;;25.15;49.67;99029.91;4993931;28;20133;-74
2022/06/04 03:04:43;;;;;;;7.57;3.50;;;;;;;25.39;49.20;99041.84;4993632;28;20030;-74
2022/06/04 03:07:09;;;;;;;8.85;3.10;;;;;;;25.62;48.59;99050.25;4993662;28;20045;-74
2022/06/04 03:09:34;;;;;;;6.30;3.03;;;;;;;25.88;48.09;99045.09;4995611;28;20081;-88
2022/06/04 03:12:00;;;;;;;7.78;2.90;;;;;;;26.16;47.02;99040.28;4978117;28;20026;-76
2022/06/04 03:14:25;;;;;;;5.45;3.03;;;;;;;26.43;46.49;99050.91;4995004;28;20501;-76
2022/06/04 03:16:51;;;;;;;10.90;3.13;;;;;;;26.73;45.96;99041.53;4977406;28;20125;-76
2022/06/04 03:19:17;;;;;;;8.07;3.20;;;;;;;27.10;45.15;99047.06;4994441;28;20076;-76
2022/06/04 03:21:42;;;;;;;15.52;3.08;;;;;;;27.44;44.08;99057.31;4995565;28;20062;-76
2022/06/04 03:24:10;;;;;;;8.05;2.88;;;;;;;27.77;43.81;99061.56;4994995;28;20031;-77
2022/06/04 03:26:35;;;;;;;8.10;2.70;;;;;;;28.15;42.93;99057.91;4993766;28;20034;-76
2022/06/04 03:29:01;;;;;;;8.60;3.10;;;;;;;28.52;41.71;99055.16;4993322;28;20058;-76
2022/06/04 03:31:28;;;;;;;5.85;2.80;;;;;;;28.96;40.98;99060.38;4993711;28;20050;-77
2022/06/04 03:33:54;;;;;;;6.40;2.80;;;;;;;29.30;40.41;99063.41;4995164;28;20469;-77
2022/06/04 03:36:21;;;;;;;9.18;3.00;;;;;;;29.64;39.57;99063.69;4993922;28;20034;-77
2022/06/04 03:38:47;;;;;;;8.95;3.00;;;;;;;30.10;38.97;99078.19;4993645;28;20543;-79
2022/06/04 03:41:12;;;;;;;25.35;3.45;;;;;;;30.63;38.23;99068.25;4977157;28;20034;-78
2022/06/04 03:43:38;;;;;;;12.13;2.72;;;;;;;31.15;36.84;99072.72;4994541;28;20023;-77
2022/06/04 03:46:04;;;;;;;7.53;2.70;;;;;;;31.68;36.19;99080.56;4993437;28;20412;-79
2022/06/04 03:48:30;;;;;;;8.45;2.47;;;;;;;32.21;35.21;99083.75;4994967;28;20102;-78
2022/06/04 03:50:55;;;;;;;7.00;2.72;;;;;;;32.60;34.29;99086.38;4994626;28;20065;-78
2022/06/04 03:53:21;;;;;;;6.38;2.72;;;;;;;33.10;33.16;99090.69;4994596;28;20026;-79
2022/06/04 03:55:46;;;;;;;5.78;2.55;;;;;;;33.59;32.02;99078.94;4994295;28;20030;-79
2022/06/04 03:58:12;;;;;;;8.55;2.50;;;;;;;34.11;31.39;99085.50;4992640;28;20493;-78
2022/06/04 04:00:39;;;;;;;6.60;2.83;;;;;;;34.57;30.96;99074.03;4994799;28;20038;-78
2022/06/04 04:03:06;;;;;;;6.70;3.15;;;;;;;35.02;30.40;99075.25;4992201;28;20080;-78
2022/06/04 04:05:33;;;;;;;9.68;2.95;;;;;;;35.61;29.17;99082.03;4977213;28;20065;-76
2022/06/04 04:07:59;;;;;;;7.90;2.53;;;;;;;36.07;28.69;99086.56;4993523;28;20033;-71
2022/06/04 04:10:25;;;;;;;9.20;2.65;;;;;;;36.53;28.12;99080.13;4993784;28;20039;-71
2022/06/04 04:12:51;;;;;;;4.68;2.20;;;;;;;37.02;27.49;99086.66;4976178;28;20035;-71
2022/06/04 04:15:16;;;;;;;8.40;2.40;;;;;;;37.50;26.40;99078.69;4976627;28;20046;-71
2022/06/04 04:17:42;;;;;;;4.40;2.40;;;;;;;38.00;25.98;99092.06;4992796;28;20037;-72
2022/06/04 04:20:17;;;;;;;18.50;4.07;;;;;;;38.44;25.77;99093.72;4992736;28;20117;-71
2022/06/04 04:22:42;;;;;;;9.50;2.60;;;;;;;38.88;24.90;99095.31;4976476;28;20022;-71
2022/06/04 04:25:08;;;;;;;10.57;3.30;;;;;;;39.36;24.60;99099.78;4990056;28;20541;-70
2022/06/04 04:27:35;;;;;;;7.45;2.50;;;;;;;39.79;23.61;99093.31;4991430;28;20047;-71
2022/06/04 04:30:01;;;;;;;10.73;2.92;;;;;;;40.06;23.23;99092.53;4992008;28;20124;-71
2022/06/04 04:32:26;;;;;;;7.20;2.65;;;;;;;40.49;22.79;99092.19;4991454;28;20184;-70
2022/06/04 04:34:52;;;;;;;4.20;2.22;;;;;;;40.86;22.37;99098.53;4992877;28;20452;-70
2022/06/04 04:37:17;;;;;;;8.73;2.42;;;;;;;41.22;21.98;99103.09;4991446;28;20060;-70
2022/06/04 04:39:43;;;;;;;6.07;1.90;;;;;;;41.59;21.65;99103.03;4991615;28;20116;-70
2022/06/04 04:42:08;;;;;;;5.68;2.10;;;;;;;41.78;21.27;99100.06;4990820;28;20054;-71
2022/06/04 04:44:34;;;;;;;6.25;2.00;;;;;;;42.21;20.97;99102.22;4991579;28;20122;-70
2022/06/04 04:46:59;;;;;;;6.10;2.03;;;;;;;42.41;20.61;99114.47;4991797;28;20057;-70
2022/06/04 04:49:25;;;;;;;5.97;2.08;;;;;;;42.54;20.44;99111.94;4991306;28;20120;-70
2022/06/04 04:51:50;;;;;;;8.45;1.90;;;;;;;42.16;20.75;99104.28;4992404;28;20030;-70
2022/06/04 04:54:16;;;;;;;5.78;2.20;;;;;;;40.68;22.47;99115.88;4990241;28;20037;-72
2022/06/04 04:56:41;;;;;;;6.30;2.10;;;;;;;39.50;23.75;99101.72;4992170;28;20608;-69
2022/06/04 04:59:08;;;;;;;9.23;2.30;;;;;;;38.52;24.94;99097.72;4991177;28;20559;-69
2022/06/04 05:01:33;;;;;;;9.82;2.55;;;;;;;37.94;25.93;99104.94;4991658;28;20088;-70
2022/06/04 05:03:59;;;;;;;6.40;2.20;;;;;;;37.39;26.91;99109.81;4974437;28;20038;-69
2022/06/04 05:06:24;;;;;;;10.20;2.47;;;;;;;37.92;26.23;99106.31;4991238;28;20141;-69
2022/06/04 05:08:52;;;;;;;4.65;2.10;;;;;;;36.97;27.56;99109.28;4990489;28;20039;-71
2022/06/04 05:11:20;;;;;;;4.70;2.00;;;;;;;36.15;28.64;99118.63;4991433;28;20037;-70
2022/06/04 05:13:49;;;;;;;7.22;2.40;;;;;;;35.51;30.46;99115.44;4990789;28;20035;-72
2022/06/04 05:16:18;;;;;;;12.50;2.50;;;;;;;34.88;31.27;99114.81;4990859;28;20030;-71
2022/06/04 05:18:44;;;;;;;6.55;2.25;;;;;;;34.41;32.49;99117.38;4974817;28;20056;-70
2022/06/04 05:21:22;;;;;;;7.85;2.33;;;;;;;34.13;32.73;99121.25;4990594;28;20040;-69
2022/06/04 05:23:48;;;;;;;8.45;2.67;;;;;;;34.11;32.84;99125.31;4974615;28;20035;-70
2022/06/04 05:26:14;;;;;;;8.85;2.75;;;;;;;36.54;29.38;99117.91;4990517;28;20556;-70
2022/06/04 05:28:40;;;;;;;7.82;2.53;;;;;;;36.63;29.05;99117.34;4974587;28;20050;-70
2022/06/04 05:31:05;;;;;;;7.72;2.30;;;;;;;37.48;27.91;99110.84;4990885;28;20121;-69
2022/06/04 05:33:31;;;;;;;5.95;2.05;;;;;;;39.52;24.92;99115.88;4991302;28;20030;-69
2022/06/04 05:35:56;;;;;;;6.72;2.25;;;;;;;40.97;23.50;99123.69;4974420;28;20492;-70
2022/06/04 05:38:22;;;;;;;8.85;1.85;;;;;;;42.01;22.00;99116.47;4990621;28;20037;-72
2022/06/04 05:40:47;;;;;;;9.18;2.00;;;;;;;42.94;20.92;99123.59;4990507;28;20111;-70
2022/06/04 05:43:12;;;;;;;7.05;2.00;;;;;;;43.78;20.12;99115.06;4991100;28;20038;-69
2022/06/04 05:45:38;;;;;;;6.83;1.90;;;;;;;44.44;19.34;99114.59;4991316;28;20038;-70
2022/06/04 05:48:04;;;;;;;4.83;1.70;;;;;;;45.04;18.35;99111.75;4990603;28;20405;-70
2022/06/04 05:50:30;;;;;;;12.60;1.80;;;;;;;45.60;18.14;99119.59;4973862;28;20046;-71
2022/06/04 05:52:55;;;;;;;7.03;1.50;;;;;;;46.10;17.31;99119.66;4990468;28;20030;-70
2022/06/04 05:55:22;;;;;;;6.57;1.80;;;;;;;46.50;16.94;99114.22;4990725;28;20033;-70
2022/06/04 05:57:47;;;;;;;;;;;;;;;46.76;16.50;99118.53;4992253;28;20112;-70
2022/06/04 06:00:13;;;;;;;5.43;1.50;;;;;;;47.11;16.28;99115.19;4990250;28;20408;-70
2022/06/04 06:02:39;;;;;;;8.95;1.70;;;;;;;47.41;16.42;99118.38;4990294;28;20277;-70
2022/06/04 06:05:04;;;;;;;8.17;1.70;;;;;;;47.63;15.98;99108.66;4991766;28;20035;-72
2022/06/04 06:07:30;;;;;;;4.30;1.43;;;;;;;47.71;15.60;99106.91;4991577;28;20034;-70
2022/06/04 06:09:56;;;;;;;7.45;1.50;;;;;;;47.97;15.22;99100.03;4990701;28;20038;-70
2022/06/04 06:12:22;;;;;;;5.17;1.70;;;;;;;47.96;15.56;99099.22;4991712;28;20034;-70
2022/06/04 06:14:47;;;;;;;9.97;1.87;;;;;;;47.98;15.31;99099.69;4991614;28;20037;-69
2022/06/04 06:17:12;;;;;;;7.80;1.60;;;;;;;48.08;15.25;99090.03;4974241;28;20042;-69
2022/06/04 06:19:38;;;;;;;5.23;1.67;;;;;;;48.23;15.43;99093.13;4974262;28;20038;-69
2022/06/04 06:22:04;;;;;;;6.37;1.37;;;;;;;48.32;15.10;99100.06;4991603;28;20039;-74
2022/06/04 06:24:29;;;;;;;13.77;1.85;;;;;;;48.47;15.15;99106.72;4989947;28;20062;-74
2022/06/04 06:26:57;;;;;;;6.97;1.52;;;;;;;48.53;14.60;99105.28;4990429;28;20034;-76
2022/06/04 06:29:23;;;;;;;9.98;1.80;;;;;;;48.62;14.64;99107.84;4990562;28;20037;-76
2022/06/04 06:31:49;;;;;;;7.05;1.55;;;;;;;48.58;14.82;99097.84;4993071;28;20038;-73
2022/06/04 06:34:14;;;;;;;6.43;1.50;;;;;;;48.66;14.75;99110.69;4994623;28;20489;-76
2022/06/04 06:36:40;;;;;;;5.13;1.70;;;;;;;48.82;14.50;99094.00;4974662;28;20322;-75
2022/06/04 06:39:06;;;;;;;5.53;1.75;;;;;;;48.80;14.59;99102.69;4958268;28;20030;-75
2022/06/04 06:41:31;;;;;;;3.77;1.37;;;;;;;48.26;15.43;99089.66;4975360;28;20492;-75
2022/06/04 06:43:57;;;;;;;4.90;1.80;;;;;;;47.30;16.82;99095.19;4986562;28;20026;-74
2022/06/04 06:46:26;;;;;;;6.77;1.87;;;;;;;46.50;17.16;99097.66;4973476;28;20046;-75
2022/06/04 06:48:56;;;;;;;7.28;1.58;;;;;;;46.15;17.43;99095.44;4974161;28;20494;-75
2022/06/04 06:51:27;;;;;;;3.88;1.60;;;;;;;46.21;16.23;99107.84;4975475;28;20046;-74
2022/06/04 06:53:55;;;;;;;3.63;1.58;;;;;;;45.96;16.63;99104.28;4961312;28;20034;-73
2022/06/04 06:56:24;;;;;;;4.78;1.50;;;;;;;44.32;18.22;99097.22;4993292;28;20026;-73
2022/06/04 06:58:49;;;;;;;7.95;1.80;;;;;;;44.46;18.26;99100.50;4994542;28;20030;-76
2022/06/04 07:01:15;;;;;;;5.77;1.50;;;;;;;43.56;18.97;99096.88;4960862;28;20402;-75
2022/06/04 07:03:41;;;;;;;11.90;1.87;;;;;;;42.44;20.24;99091.09;4976585;28;20070;-75
2022/06/04 07:06:07;;;;;;;10.33;2.10;;;;;;;41.55;21.01;99099.31;4993175;28;20109;-75
2022/06/04 07:08:34;;;;;;;8.50;2.17;;;;;;;40.79;21.82;99091.81;4960858;28;20042;-74
2022/06/04 07:10:59;;;;;;;9.95;2.00;;;;;;;40.06;22.78;99092.53;4976530;28;20553;-80
2022/06/04 07:13:25;;;;;;;8.40;1.98;;;;;;;39.51;22.78;99095.16;4994453;28;20085;-75
2022/06/04 07:15:52;;;;;;;6.15;1.88;;;;;;;38.94;23.91;99093.34;4994529;28;20072;-73
2022/06/04 07:18:18;;;;;;;9.70;2.17;;;;;;;38.46;24.11;99093.44;4992910;28;20044;-73
2022/06/04 07:20:43;;;;;;;10.07;2.28;;;;;;;38.08;25.60;99098.78;4993221;28;20042;-74
2022/06/04 07:23:09;;;;;;;8.75;2.33;;;;;;;37.68;26.18;99093.47;4992989;28;20033;-75
2022/06/04 07:25:35;;;;;;;7.50;2.28;;;;;;;37.48;26.16;99087.13;4993100;28;20066;-75
2022/06/04 07:28:00;;;;;;;8.25;2.17;;;;;;;37.32;25.88;99088.34;4992792;28;20051;-75
2022/06/04 07:30:26;;;;;;;8.68;2.20;;;;;;;37.46;25.32;99075.72;4991572;28;20046;-75
2022/06/04 07:32:52;;;;;;;13.18;2.47;;;;;;;38.68;24.01;99081.97;4959203;28;20565;-74
2022/06/04 07:35:18;;;;;;;5.13;2.05;;;;;;;39.02;23.34;99073.56;4993096;28;20026;-84
2022/06/04 07:37:43;;;;;;;9.07;2.10;;;;;;;39.61;23.00;99075.88;4960540;28;20409;-73
2022/06/04 07:40:10;;;;;;;5.70;2.25;;;;;;;39.88;23.34;99077.00;4992800;28;20114;-70
2022/06/04 07:42:35;;;;;;;5.65;1.90;;;;;;;39.28;24.06;99069.63;4976023;28;20034;-74
2022/06/04 07:45:01;;;;;;;7.25;2.00;;;;;;;39.44;23.31;99074.53;4992310;28;20511;-75
2022/06/04 07:47:26;;;;;;;8.93;2.15;;;;;;;39.77;22.80;99069.03;4992352;28;20092;-74
2022/06/04 07:49:55;;;;;;;7.03;1.95;;;;;;;39.21;22.91;99070.00;4992242;28;20029;-74
2022/06/04 07:52:20;;;;;;;6.72;2.10;;;;;;;39.13;23.51;99073.44;4959192;28;20041;-78
2022/06/04 07:54:46;;;;;;;7.47;1.98;;;;;;;38.85;23.55;99081.47;4975956;28;20023;-72
2022/06/04 07:57:11;;;;;;;10.35;2.63;;;;;;;39.04;23.12;99070.53;4993639;28;20395;-76
2022/06/04 07:59:37;;;;;;;7.00;2.10;;;;;;;38.93;23.50;99072.59;4976075;28;20031;-75
2022/06/04 08:02:03;;;;;;;8.15;2.13;;;;;;;38.44;24.16;99069.19;4975805;28;20046;-78
2022/06/04 08:04:28;;;;;;;9.15;1.83;;;;;;;38.03;24.60;99075.13;4959799;28;20027;-75
2022/06/04 08:06:54;;;;;;;7.38;1.98;;;;;;;37.71;25.15;99073.06;4975616;28;20048;-74
2022/06/04 08:09:19;;;;;;;9.68;2.00;;;;;;;37.37;25.39;99080.16;4993443;28;20097;-75
2022/06/04 08:11:45;;;;;;;5.13;2.00;;;;;;;37.08;25.90;99080.09;4975777;28;20069;-75
2022/06/04 08:14:17;;;;;;;8.35;2.00;;;;;;;36.80;26.73;99082.47;4959580;28;20034;-72
2022/06/04 08:16:57;;;;;;;5.90;2.10;;;;;;;36.51;27.66;99094.00;4975501;28;20084;-75
2022/06/04 08:19:24;;;;;;;8.77;2.40;;;;;;;36.18;29.80;99088.16;4961017;28;20083;-75
2022/06/04 08:21:49;;;;;;;11.57;2.40;;;;;;;35.82;31.48;99101.84;4976191;28;20031;-76
2022/06/04 08:24:15;;;;;;;16.40;2.78;;;;;;;35.45;32.94;99089.38;4975333;28;20030;-73
2022/06/04 08:26:42;;;;;;;12.07;2.78;;;;;;;35.17;33.47;99087.19;4991716;28;20042;-74
2022/06/04 08:29:08;;;;;;;9.38;2.95;;;;;;;34.91;33.61;99082.53;4971856;28;20059;-74
2022/06/04 08:31:33;;;;;;;13.88;2.80;;;;;;;34.66;34.07;99085.19;4956019;28;20049;-76
2022/06/04 08:33:59;;;;;;;10.35;2.97;;;;;;;34.42;34.79;99078.34;4973465;28;20545;-74
2022/06/04 08:36:25;;;;;;;21.88;3.17;;;;;;;34.29;35.03;99086.16;4974890;28;20038;-74
2022/06/04 08:38:50;;;;;;;8.60;2.72;;;;;;;34.12;35.14;99073.56;4976135;28;20049;-75
2022/06/04 08:41:38;;;;;;;6.20;2.45;;;;;;;34.00;35.68;99078.38;4974861;28;20520;-74
2022/06/04 08:44:48;;;;;;;12.43;2.70;;;;;;;34.05;35.86;99078.44;4990732;28;20042;-74
2022/06/04 08:47:26;;;;;;;7.28;2.75;;;;;;;34.65;34.90;99068.13;4979345;28;20116;-74
2022/06/04 08:50:02;;;;;;;9.05;2.65;;;;;;;35.00;35.37;99069.28;4954538;28;20506;-75
2022/06/04 08:52:38;;;;;;;5.97;2.45;;;;;;;35.35;34.10;99070.41;4971754;28;20034;-75
2022/06/04 08:58:15;;;;;;;6.28;2.38;;;;;;;36.18;31.88;99066.44;4972939;28;20545;-75
2022/06/04 09:00:52;;;;;;;4.47;2.42;;;;;;;36.43;30.89;99064.69;4972023;28;20027;-74
2022/06/04 09:03:35;;;;;;;5.63;2.60;;;;;;;36.64;30.14;99056.44;4939137;28;20475;-75
2022/06/04 09:06:19;;;;;;;7.78;2.47;;;;;;;36.64;29.76;99049.09;4972739;28;20113;-75
2022/06/04 09:08:51;;;;;;;10.82;2.30;;;;;;;36.78;28.98;99035.69;4971517;28;20053;-75
2022/06/04 09:11:26;;;;;;;9.98;2.28;;;;;;;37.03;28.62;99047.47;4971552;28;20053;-75
2022/06/04 09:14:29;;;;;;;7.47;2.35;;;;;;;37.25;28.34;99057.94;4971228;28;20049;-76
2022/06/04 09:17:20;;;;;;;7.00;2.40;;;;;;;36.79;27.51;99044.69;4972381;28;20030;-75
2022/06/04 09:19:50;;;;;;;4.18;2.30;;;;;;;36.99;27.90;99054.59;4883611;29;20439;-74
2022/06/04 09:22:23;;;;;;;9.32;2.67;;;;;;;37.09;27.48;99046.34;4881787;29;20583;-74
2022/06/04 09:24:48;;;;;;;5.90;2.50;;;;;;;37.06;27.43;99042.28;4907645;29;20040;-75
2022/06/04 09:27:23;;;;;;;6.40;2.58;;;;;;;37.11;27.62;99036.78;4881548;29;20052;-75
2022/06/04 09:29:52;;;;;;;6.35;2.40;;;;;;;37.17;27.28;99037.56;4897999;29;20475;-75
2022/06/04 09:32:49;;;;;;;5.72;2.25;;;;;;;37.23;26.52;99031.00;4912922;29;20133;-73
2022/06/04 09:35:22;;;;;;;8.35;2.33;;;;;;;37.22;27.73;99028.56;4875587;29;20056;-75
2022/06/04 09:37:48;;;;;;;8.65;2.55;;;;;;;37.31;27.22;99026.88;4844782;29;20044;-74
2022/06/04 09:40:21;;;;;;;10.02;2.22;;;;;;;37.22;25.89;99014.97;4829253;29;20041;-73
2022/06/04 09:42:47;;;;;;;7.65;2.17;;;;;;;37.29;27.82;99015.44;4859999;29;20101;-75
2022/06/04 09:45:21;;;;;;;9.32;2.60;;;;;;;37.37;27.74;99017.56;4859915;29;20045;-75
2022/06/04 09:47:48;;;;;;;5.72;2.35;;;;;;;37.27;27.14;99004.03;4860387;29;20069;-74
2022/06/04 09:50:37;;;;;;;7.30;2.22;;;;;;;37.37;27.90;99005.84;4844429;29;20389;-75
2022/06/04 09:53:18;;;;;;;7.03;2.20;;;;;;;37.53;27.78;99001.03;4860471;29;20132;-75
2022/06/04 09:55:47;;;;;;;4.93;2.15;;;;;;;37.53;27.03;99001.88;4846458;29;20033;-75
2022/06/04 09:58:26;;;;;;;6.57;2.22;;;;;;;37.37;25.86;98994.94;4900526;29;20047;-74
2022/06/04 10:01:14;;;;;;;6.15;2.08;;;;;;;37.09;24.81;98990.00;4900413;29;20035;-75
2022/06/04 10:03:40;;;;;;;15.07;2.40;;;;;;;36.84;25.08;98990.25;4918164;29;20035;-75
2022/06/04 10:06:11;;;;;;;8.27;2.22;;;;;;;36.65;24.88;98990.88;4900832;29;20542;-74
2022/06/04 10:11:33;;;;;;;9.07;2.50;;;;;;;36.52;27.96;98983.38;4945355;28;20056;-75
2022/06/04 10:13:59;;;;;;;6.15;2.05;;;;;;;36.57;27.86;98977.91;4974946;28;20406;-75
2022/06/04 10:16:26;;;;;;;9.18;1.88;;;;;;;36.70;27.90;98981.88;4958987;28;20062;-74
2022/06/04 10:19:15;;;;;;;6.13;2.03;;;;;;;36.75;27.86;98960.94;4958721;28;20031;-75
2022/06/04 10:21:42;;;;;;;7.40;2.33;;;;;;;36.93;27.89;98967.56;4942906;28;20391;-75
2022/06/04 10:24:24;;;;;;;4.05;1.95;;;;;;;37.08;27.67;98971.25;4943599;28;20027;-75
2022/06/04 10:26:59;;;;;;;8.40;2.28;;;;;;;37.16;27.74;98965.19;4977587;28;20552;-75
2022/06/04 10:29:53;;;;;;;4.07;1.90;;;;;;;37.29;27.42;98955.56;4994060;28;20026;-75
2022/06/04 10:32:56;;;;;;;5.13;2.05;;;;;;;37.47;27.31;98962.19;4993867;28;20026;-75
2022/06/04 10:35:43;;;;;;;4.97;1.80;;;;;;;37.51;26.96;98955.03;4994945;28;20034;-75
2022/06/04 10:38:16;;;;;;;4.80;1.83;;;;;;;37.40;27.47;98953.53;4977305;28;20034;-75
2022/06/04 10:40:48;;;;;;;9.25;2.10;;;;;;;37.17;27.46;98950.47;4993931;28;20026;-75
2022/06/04 10:43:22;;;;;;;8.10;1.85;;;;;;;36.98;27.41;98944.97;4994885;28;20034;-75
2022/06/04 10:46:21;;;;;;;4.38;1.80;;;;;;;36.78;27.09;98948.66;4994975;28;20030;-75
2022/06/04 10:49:24;;;;;;;4.93;2.00;;;;;;;36.56;26.46;98951.81;4993870;28;20041;-75
2022/06/04 10:51:59;;;;;;;6.35;1.90;;;;;;;36.35;27.02;98945.72;4994873;28;20026;-75
2022/06/04 10:54:50;;;;;;;6.53;2.10;;;;;;;36.18;27.82;98944.16;4977303;28;20053;-75
2022/06/04 10:57:19;;;;;;;4.38;1.85;;;;;;;36.16;27.75;98945.53;4993451;28;20041;-75
2022/06/04 10:59:53;;;;;;;5.35;2.00;;;;;;;36.07;28.05;98939.84;4993214;28;20050;-75
2022/06/04 11:02:21;;;;;;;10.15;2.20;;;;;;;36.05;28.08;98940.13;4993151;28;20088;-75
2022/06/04 11:04:57;;;;;;;6.63;2.20;;;;;;;36.02;27.76;98929.81;4994615;28;20105;-75
2022/06/04 11:07:37;;;;;;;6.00;1.90;;;;;;;35.95;28.02;98926.63;4976870;28;20026;-75
2022/06/04 11:10:28;;;;;;;5.20;2.40;;;;;;;35.97;27.66;98924.44;4977380;28;20037;-75
2022/06/04 11:13:15;;;;;;;6.47;2.25;;;;;;;35.94;27.07;98918.75;4993607;28;20034;-75
2022/06/04 11:16:10;;;;;;;5.95;2.60;;;;;;;35.81;27.71;98914.75;4994049;28;20034;-75
2022/06/04 11:19:05;;;;;;;8.63;2.28;;;;;;;35.80;28.48;98907.69;4956385;28;20042;-75
2022/06/04 11:21:41;;;;;;;5.18;2.00;;;;;;;35.58;27.90;98898.00;4915135;29;20040;-75
2022/06/04 11:24:34;;;;;;;5.72;2.30;;;;;;;35.37;26.98;98908.09;4914338;29;20040;-75
2022/06/04 11:27:11;;;;;;;9.38;2.03;;;;;;;35.27;28.33;98898.09;4915114;29;20052;-75
2022/06/04 11:29:37;;;;;;;3.50;1.83;;;;;;;35.29;27.97;98904.06;4915037;29;20040;-75
2022/06/04 11:32:28;;;;;;;5.95;2.20;;;;;;;35.13;27.42;98902.44;4915263;29;20044;-75
2022/06/04 11:35:11;;;;;;;6.57;2.08;;;;;;;35.08;27.88;98899.75;4915222;29;20507;-75
2022/06/04 11:38:04;;;;;;;7.55;2.35;;;;;;;35.10;29.07;98901.09;4914729;29;20544;-75
2022/06/04 11:40:51;;;;;;;5.97;2.20;;;;;;;35.05;28.38;98894.88;4914134;29;20177;-75
2022/06/04 11:43:54;;;;;;;3.42;1.98;;;;;;;35.04;27.51;98882.41;4915066;29;20527;-75
2022/06/04 11:46:45;;;;;;;3.85;1.90;;;;;;;34.87;28.67;98885.41;4904778;29;20080;-75
2022/06/04 11:49:32;;;;;;;4.47;1.90;;;;;;;34.78;29.65;98885.97;4914188;29;20537;-75
2022/06/04 11:52:24;;;;;;;6.68;2.30;;;;;;;34.63;29.94;98875.09;4914932;29;20531;-75
2022/06/04 11:55:14;;;;;;;4.75;2.08;;;;;;;34.53;28.40;98877.81;4917691;29;20522;-75
2022/06/04 11:58:28;;;;;;;6.90;2.28;;;;;;;34.36;28.73;98870.75;4903802;28;20034;-75
2022/06/04 12:00:55;;;;;;;8.50;2.22;;;;;;;34.36;28.21;98870.75;4971939;28;20081;-75
2022/06/04 12:03:31;;;;;;;3.10;1.98;;;;;;;34.24;28.57;98867.53;4924069;28;20026;-75
2022/06/04 12:06:13;;;;;;;5.40;2.10;;;;;;;34.37;29.13;98879.72;4955643;28;20097;-75